Time;durP1;ratioP1;P1;durP2;ratioP2;P2;SDS_P1;SDS_P2;PMS_P1;PMS_P2;Temp;Humidity;BMP_temperature;BMP_pressure;BME280_temperature;BME280_humidity;BME280_pressure;Samples;Min_cycle;Max_cycle;Signal;HPM_P1;HPM_P2
2022/07/03 00:03:39;;;;;;;1.27;0.65;;;;;;;22.75;41.51;101726.69;16141233;19;131143;-55
2022/07/03 00:09:04;;;;;;;1.30;0.40;;;;;;;22.74;41.48;101725.84;16141182;19;130309;-56
2022/07/03 00:14:26;;;;;;;1.55;0.57;;;;;;;22.73;41.22;101735.31;16142963;19;130124;-56
2022/07/03 00:19:48;;;;;;;0.65;0.45;;;;;;;22.73;41.28;101731.66;16142374;19;129703;-56
2022/07/03 00:25:12;;;;;;;0.90;0.45;;;;;;;22.72;41.43;101722.47;16141213;19;130385;-52
2022/07/03 00:30:35;;;;;;;0.93;0.33;;;;;;;22.72;41.06;101733.63;16143980;19;130390;-56
2022/07/03 00:35:57;;;;;;;1.35;0.60;;;;;;;22.73;41.50;101726.09;16142263;19;128871;-57
2022/07/03 00:41:31;;;;;;;1.15;0.40;;;;;;;22.73;41.05;101726.94;16139265;19;129721;-57
2022/07/03 00:46:54;;;;;;;1.10;0.40;;;;;;;22.71;41.46;101731.94;16142270;19;132051;-55
2022/07/03 00:52:18;;;;;;;1.40;0.28;;;;;;;22.71;41.43;101737.50;16142204;19;128861;-56
2022/07/03 00:57:45;;;;;;;1.33;0.20;;;;;;;22.70;41.09;101724.66;16136872;19;131530;-56
2022/07/03 01:03:15;;;;;;;1.52;0.30;;;;;;;22.70;41.16;101733.03;16136361;19;131761;-55
2022/07/03 01:08:48;;;;;;;2.33;0.30;;;;;;;22.70;41.57;101724.66;16139493;19;129688;-56
2022/07/03 01:14:31;;;;;;;0.50;0.15;;;;;;;22.70;41.30;101723.81;16137642;19;128856;-56
2022/07/03 01:20:03;;;;;;;1.23;0.30;;;;;;;22.69;41.43;101716.56;16138527;19;128843;-57
2022/07/03 01:25:36;;;;;;;0.57;0.20;;;;;;;22.69;41.59;101722.13;16131183;19;129524;-55
2022/07/03 01:31:01;;;;;;;0.95;0.30;;;;;;;22.68;41.41;101720.44;16138700;19;129487;-57
2022/07/03 01:36:25;;;;;;;1.13;0.20;;;;;;;22.67;41.45;101719.59;16134048;19;129487;-55
2022/07/03 01:41:50;;;;;;;0.50;0.30;;;;;;;22.68;41.76;101717.66;16132537;19;130007;-56
2022/07/03 01:47:16;;;;;;;0.30;0.28;;;;;;;22.66;41.62;101717.88;16133213;19;129220;-57
2022/07/03 01:52:41;;;;;;;0.28;0.20;;;;;;;22.65;41.46;101707.84;16136807;19;128734;-57
2022/07/03 01:58:06;;;;;;;0.85;0.20;;;;;;;22.65;41.53;101705.03;16136255;19;129420;-57
2022/07/03 02:03:31;;;;;;;0.68;0.40;;;;;;;22.66;41.55;101703.94;16131760;19;130164;-58
2022/07/03 02:08:59;;;;;;;0.38;0.20;;;;;;;22.64;41.36;101700.59;16135817;19;128950;-56
2022/07/03 02:15:02;;;;;;;0.52;0.20;;;;;;;22.64;41.55;101702.53;16133145;19;128912;-58
2022/07/03 02:20:24;;;;;;;0.70;0.20;;;;;;;22.62;41.58;101688.84;16134193;19;129420;-57
2022/07/03 02:25:51;;;;;;;0.20;0.20;;;;;;;22.62;41.87;101691.63;16133089;19;129663;-57
2022/07/03 02:31:16;;;;;;;0.30;0.20;;;;;;;22.61;41.59;101692.72;16147276;19;129401;-58
2022/07/03 02:36:40;;;;;;;;;;;;;;;22.57;41.79;101697.97;16151421;19;129704;-55
2022/07/03 02:42:14;;;;;;;0.88;0.20;;;;;;;22.62;41.80;101688.84;16146224;19;130105;-57
2022/07/03 02:47:51;;;;;;;0.95;0.20;;;;;;;22.59;41.84;101695.75;16149904;19;129236;-53
2022/07/03 02:53:28;;;;;;;0.50;0.10;;;;;;;22.59;41.67;101695.75;16143906;19;129513;-58
2022/07/03 02:59:22;;;;;;;1.55;0.20;;;;;;;22.58;41.77;101698.81;16148282;19;129123;-57
2022/07/03 03:04:51;;;;;;;0.20;0.15;;;;;;;22.57;41.71;101699.91;16146022;19;129569;-57
2022/07/03 03:10:18;;;;;;;0.30;0.10;;;;;;;22.55;41.79;101705.75;16148190;19;129492;-56
2022/07/03 03:15:53;;;;;;;0.40;0.20;;;;;;;22.55;41.70;101699.31;16147777;19;130311;-58
2022/07/03 03:21:18;;;;;;;1.85;0.17;;;;;;;22.55;41.69;101710.47;16142862;19;129434;-56
2022/07/03 03:26:39;;;;;;;0.15;0.15;;;;;;;22.55;41.77;101702.09;16145750;19;129436;-55
2022/07/03 03:32:03;;;;;;;0.85;0.20;;;;;;;22.55;41.58;101704.88;16142589;19;129881;-55
2022/07/03 03:37:25;;;;;;;0.70;0.30;;;;;;;22.53;41.46;101701.50;16145594;19;129890;-57
2022/07/03 03:42:47;;;;;;;0.43;0.00;;;;;;;22.53;41.70;101718.22;16138634;19;130138;-58
2022/07/03 03:48:09;;;;;;;0.17;0.00;;;;;;;22.52;41.65;101708.22;16142672;19;130280;-55
2022/07/03 03:53:31;;;;;;;0.40;0.13;;;;;;;22.51;42.02;101732.44;16143623;19;131174;-55
2022/07/03 03:58:53;;;;;;;0.20;0.10;;;;;;;22.51;41.70;101726.88;16144622;19;129400;-56
2022/07/03 04:04:18;;;;;;;0.77;0.22;;;;;;;22.52;41.46;101727.72;16137977;19;128884;-56
2022/07/03 04:09:40;;;;;;;0.30;0.10;;;;;;;22.50;41.59;101729.91;16141816;19;128968;-56
2022/07/03 04:15:03;;;;;;;0.20;0.10;;;;;;;22.51;42.00;101728.81;16142065;19;129117;-57
2022/07/03 04:20:25;;;;;;;0.20;0.10;;;;;;;22.49;41.81;101729.06;16140813;19;129610;-58
2022/07/03 04:25:47;;;;;;;0.20;0.10;;;;;;;22.49;42.01;101729.06;16137624;19;129444;-56
2022/07/03 04:31:09;;;;;;;0.60;0.17;;;;;;;22.49;42.13;101728.22;16141467;19;129539;-59
2022/07/03 04:36:31;;;;;;;0.65;0.10;;;;;;;22.49;41.56;101728.22;16140015;19;130185;-55
2022/07/03 04:41:52;;;;;;;0.80;0.30;;;;;;;22.48;42.08;101720.97;16137953;19;129904;-57
2022/07/03 04:47:15;;;;;;;0.10;0.00;;;;;;;22.47;41.82;101736.00;16140892;19;130386;-57
2022/07/03 04:52:37;;;;;;;0.70;0.15;;;;;;;22.47;41.80;101738.78;16137347;19;129533;-56
2022/07/03 04:57:58;;;;;;;0.20;0.10;;;;;;;22.46;41.89;101751.88;16137466;19;128841;-57
2022/07/03 05:03:20;;;;;;;0.13;0.13;;;;;;;22.46;41.91;101745.44;16135433;19;130290;-54
2022/07/03 05:08:42;;;;;;;0.43;0.10;;;;;;;22.46;41.92;101756.59;16140755;19;129853;-54
2022/07/03 05:14:04;;;;;;;0.30;0.10;;;;;;;22.46;41.88;101759.41;16140637;19;129304;-57
2022/07/03 05:19:26;;;;;;;0.45;0.20;;;;;;;22.45;42.11;101758.56;16136575;19;129342;-58
2022/07/03 05:24:48;;;;;;;0.20;0.20;;;;;;;22.44;41.71;101760.50;16128789;19;129462;-58
2022/07/03 05:30:10;;;;;;;0.30;0.20;;;;;;;22.44;41.83;101756.88;16131714;19;130161;-55
2022/07/03 05:35:32;;;;;;;0.63;0.20;;;;;;;22.44;41.93;101765.22;16135965;19;131574;-55
2022/07/03 05:40:53;;;;;;;0.30;0.10;;;;;;;22.43;41.67;101764.38;16136191;19;131535;-56
2022/07/03 05:46:15;;;;;;;0.32;0.22;;;;;;;22.42;41.91;101759.88;16138015;19;130229;-58
2022/07/03 05:51:37;;;;;;;0.15;0.10;;;;;;;22.43;41.79;101775.53;16137461;19;129832;-56
2022/07/03 05:56:59;;;;;;;0.10;0.10;;;;;;;22.43;41.89;101771.91;16136716;19;129538;-56
2022/07/03 06:02:22;;;;;;;0.75;0.30;;;;;;;22.42;41.52;101779.41;16129803;19;129229;-57
2022/07/03 06:07:44;;;;;;;0.63;0.30;;;;;;;22.43;41.96;101781.09;16129808;19;129713;-55
2022/07/03 06:13:05;;;;;;;0.30;0.20;;;;;;;22.43;42.00;101781.09;16134036;19;129449;-56
2022/07/03 06:18:27;;;;;;;0.38;0.30;;;;;;;22.41;41.80;101777.72;16134996;19;129775;-57
2022/07/03 06:23:49;;;;;;;1.23;0.13;;;;;;;22.42;41.85;101768.25;16128870;19;130338;-57
2022/07/03 06:29:11;;;;;;;0.75;0.20;;;;;;;22.57;41.38;101780.78;16132191;19;129019;-54
2022/07/03 06:34:33;;;;;;;0.95;0.30;;;;;;;22.66;41.29;101779.25;16132023;19;129313;-53
2022/07/03 06:39:54;;;;;;;0.68;0.20;;;;;;;22.78;41.31;101775.53;16130381;19;129208;-56
2022/07/03 06:45:16;;;;;;;0.73;0.15;;;;;;;22.83;41.14;101772.84;16125583;19;129514;-58
2022/07/03 06:50:38;;;;;;;0.93;0.40;;;;;;;22.89;41.23;101777.41;16132197;19;130516;-55
2022/07/03 06:56:00;;;;;;;0.63;0.35;;;;;;;22.93;41.04;101778.59;16132315;19;128825;-56
2022/07/03 07:01:21;;;;;;;1.05;0.20;;;;;;;23.00;40.90;101776.50;16130005;19;128853;-58
2022/07/03 07:06:43;;;;;;;0.73;0.30;;;;;;;23.03;40.96;101784.34;16129474;19;129632;-57
2022/07/03 07:12:05;;;;;;;0.73;0.30;;;;;;;23.07;40.67;101790.28;16132246;19;129847;-55
2022/07/03 07:17:27;;;;;;;1.15;0.40;;;;;;;23.10;40.63;101784.16;16146488;19;129403;-55
2022/07/03 07:22:49;;;;;;;0.43;0.25;;;;;;;23.13;40.47;101782.81;16145571;19;129053;-53
2022/07/03 07:28:11;;;;;;;3.97;0.50;;;;;;;23.10;40.59;101789.75;16145043;19;129553;-57
2022/07/03 07:33:33;;;;;;;1.92;0.70;;;;;;;23.14;40.52;101787.31;16144428;19;129438;-57
2022/07/03 07:38:55;;;;;;;6.07;0.70;;;;;;;23.14;40.45;101795.69;16143419;19;129488;-53
2022/07/03 07:44:16;;;;;;;3.15;0.80;;;;;;;23.13;40.69;101802.34;16140216;19;132475;-57
2022/07/03 07:49:40;;;;;;;3.08;0.60;;;;;;;23.13;40.46;101800.41;16144566;19;129533;-55
2022/07/03 07:55:06;;;;;;;3.20;0.47;;;;;;;23.09;40.35;101810.38;16144318;19;129919;-54
2022/07/03 08:00:28;;;;;;;2.35;0.60;;;;;;;23.05;40.71;101807.25;16142440;19;129575;-56
2022/07/03 08:05:50;;;;;;;2.40;0.65;;;;;;;23.06;40.49;101808.13;16140023;19;129636;-55
2022/07/03 08:11:11;;;;;;;2.67;0.73;;;;;;;23.10;40.40;101808.44;16141299;19;129636;-55
2022/07/03 08:16:38;;;;;;;2.47;0.75;;;;;;;23.14;40.28;101796.50;16141500;19;131222;-53
2022/07/03 08:22:01;;;;;;;2.10;0.70;;;;;;;23.19;40.12;101795.72;16140593;19;130306;-56
2022/07/03 08:27:22;;;;;;;1.70;0.50;;;;;;;23.25;40.26;101791.06;16135091;19;129714;-54
2022/07/03 08:32:45;;;;;;;1.75;0.50;;;;;;;23.26;40.29;101790.84;16142726;19;132332;-56
2022/07/03 08:38:10;;;;;;;1.17;0.50;;;;;;;23.30;40.30;101794.78;16139860;19;130859;-55
2022/07/03 08:43:33;;;;;;;2.13;0.67;;;;;;;23.33;40.28;101791.47;16137932;19;129953;-56
2022/07/03 08:48:55;;;;;;;2.17;0.50;;;;;;;23.38;40.44;101795.44;16141416;19;129163;-56
2022/07/03 08:54:17;;;;;;;2.10;0.55;;;;;;;23.35;40.27;101792.06;16139969;19;128805;-55
2022/07/03 08:59:39;;;;;;;4.57;0.47;;;;;;;23.36;40.59;101792.91;16141165;19;132297;-57
2022/07/03 09:05:02;;;;;;;2.33;0.70;;;;;;;23.39;40.59;101791.53;16134963;19;129752;-56
2022/07/03 09:10:23;;;;;;;1.77;0.40;;;;;;;23.38;40.51;101795.44;16140548;19;129336;-55
2022/07/03 09:15:45;;;;;;;1.85;0.52;;;;;;;23.39;40.63;101806.34;16136920;19;129457;-56
2022/07/03 09:21:08;;;;;;;3.08;0.82;;;;;;;23.42;40.34;101793.81;16138515;19;130569;-53
2022/07/03 09:26:30;;;;;;;2.15;0.40;;;;;;;23.44;40.66;101798.06;16136726;19;131319;-57
2022/07/03 09:31:58;;;;;;;0.82;0.40;;;;;;;23.44;41.17;101794.41;16139894;19;130006;-54
2022/07/03 09:37:29;;;;;;;2.20;0.60;;;;;;;23.46;41.01;101806.16;16136426;19;129829;-54
2022/07/03 09:43:01;;;;;;;3.17;0.60;;;;;;;23.47;40.65;101805.06;16134957;19;131133;-57
2022/07/03 09:48:34;;;;;;;1.67;0.40;;;;;;;23.49;40.96;101808.44;16137698;19;130113;-58
2022/07/03 09:53:59;;;;;;;3.67;0.60;;;;;;;23.51;40.94;101818.25;16139843;19;130376;-56
2022/07/03 09:59:21;;;;;;;2.80;0.47;;;;;;;23.54;40.93;101818.84;16136420;19;129368;-55
2022/07/03 10:04:43;;;;;;;3.80;0.60;;;;;;;23.55;40.69;101807.41;16131916;19;129419;-51
2022/07/03 10:10:06;;;;;;;3.28;0.50;;;;;;;23.57;40.73;101816.38;16136495;19;129314;-54
2022/07/03 10:15:29;;;;;;;4.28;0.60;;;;;;;23.54;40.68;101813.25;16137237;19;129176;-57
2022/07/03 10:20:51;;;;;;;2.95;0.70;;;;;;;23.53;40.83;101817.97;16135708;19;130284;-56
2022/07/03 10:26:13;;;;;;;2.47;0.30;;;;;;;23.55;40.93;101817.75;16126701;19;129816;-55
2022/07/03 10:31:36;;;;;;;3.97;0.45;;;;;;;23.50;40.54;101818.53;16131359;19;130668;-53
2022/07/03 10:37:01;;;;;;;3.25;0.60;;;;;;;23.46;40.77;101820.13;16131063;19;130197;-54
2022/07/03 10:48:11;;;;;;;0.88;0.30;;;;;;;23.44;40.73;101825.13;16135877;19;129620;-53
2022/07/03 10:53:33;;;;;;;1.65;0.30;;;;;;;23.42;40.82;101818.94;16143499;19;130278;-55
2022/07/03 10:58:56;;;;;;;1.30;0.40;;;;;;;23.42;41.15;101828.19;16150483;19;129044;-54
2022/07/03 11:04:18;;;;;;;3.20;0.50;;;;;;;23.40;40.70;101821.16;16143269;19;130858;-56
2022/07/03 11:09:39;;;;;;;4.50;1.02;;;;;;;23.40;40.85;101827.59;16147692;19;130525;-55
2022/07/03 11:15:35;;;;;;;4.50;0.57;;;;;;;23.42;40.89;101813.38;16145115;19;129555;-53
2022/07/03 11:21:11;;;;;;;3.92;0.57;;;;;;;23.45;40.88;101807.28;16132192;19;132076;-54
2022/07/03 11:26:33;;;;;;;5.85;0.65;;;;;;;23.43;40.89;101810.34;16133800;19;129896;-53
2022/07/03 11:31:55;;;;;;;6.28;0.60;;;;;;;23.45;40.93;101801.69;16139150;19;129893;-56
2022/07/03 11:37:20;;;;;;;6.88;0.73;;;;;;;23.46;40.64;101795.00;16137154;19;130560;-53
2022/07/03 11:42:41;;;;;;;8.23;0.70;;;;;;;23.47;40.67;101788.31;16134026;19;130392;-55
2022/07/03 11:48:07;;;;;;;4.95;0.70;;;;;;;23.48;40.76;101802.00;16136607;19;130152;-55
2022/07/03 11:53:34;;;;;;;12.07;0.95;;;;;;;23.50;40.60;101816.56;16136506;19;129789;-55
2022/07/03 11:58:58;;;;;;;7.13;0.82;;;;;;;23.53;40.44;101811.56;16135944;19;131475;-55
2022/07/03 12:04:23;;;;;;;8.35;0.40;;;;;;;23.47;40.55;101805.91;16139427;19;132199;-54
2022/07/03 12:09:50;;;;;;;2.08;0.30;;;;;;;23.47;40.36;101807.84;16143889;19;129588;-55
2022/07/03 12:15:11;;;;;;;3.42;0.57;;;;;;;23.47;40.63;101810.66;16142765;19;129250;-55
2022/07/03 12:20:33;;;;;;;1.23;0.43;;;;;;;23.49;40.57;101808.44;16143987;19;129427;-56
2022/07/03 12:25:55;;;;;;;2.40;0.55;;;;;;;23.49;40.66;101814.03;16137898;19;129045;-52
2022/07/03 12:31:17;;;;;;;4.75;0.60;;;;;;;23.52;40.30;101810.72;16141424;19;130366;-56
2022/07/03 12:36:39;;;;;;;2.75;0.43;;;;;;;23.50;40.01;101804.56;16140596;19;129754;-57
2022/07/03 12:42:01;;;;;;;0.75;0.30;;;;;;;23.49;39.87;101811.25;16139674;19;131007;-57
2022/07/03 12:47:23;;;;;;;1.33;0.40;;;;;;;23.45;39.85;101813.69;16142427;19;129876;-51
2022/07/03 12:52:53;;;;;;;3.60;0.43;;;;;;;23.45;39.81;101810.06;16141992;19;130043;-54
2022/07/03 13:04:04;;;;;;;4.35;1.08;;;;;;;23.45;38.92;101802.50;16140191;19;130457;-56
2022/07/03 13:09:26;;;;;;;0.50;0.30;;;;;;;23.46;39.32;101809.78;16139389;19;129107;-56
2022/07/03 13:14:56;;;;;;;1.75;0.45;;;;;;;23.49;38.90;101812.06;16137481;19;129594;-53
2022/07/03 13:20:18;;;;;;;1.10;0.35;;;;;;;23.49;38.62;101805.66;16141331;19;129623;-55
2022/07/03 13:25:42;;;;;;;1.55;0.35;;;;;;;23.50;38.92;101810.16;16135900;19;129716;-54
2022/07/03 13:31:04;;;;;;;1.35;0.35;;;;;;;23.55;38.41;101812.16;16133279;19;131071;-54
2022/07/03 13:36:27;;;;;;;3.90;0.50;;;;;;;23.53;38.49;101820.78;16139127;19;129967;-56
2022/07/03 13:41:49;;;;;;;1.52;0.38;;;;;;;23.57;38.61;101810.78;16135665;19;129346;-55
2022/07/03 13:47:11;;;;;;;0.75;0.30;;;;;;;23.57;38.72;101812.75;16134527;19;131060;-56
2022/07/03 13:52:32;;;;;;;5.00;0.60;;;;;;;23.57;38.50;101819.16;16139554;19;129867;-55
2022/07/03 13:57:54;;;;;;;5.05;0.35;;;;;;;23.58;38.96;101820.00;16136535;19;129726;-53
2022/07/03 14:03:16;;;;;;;1.08;0.22;;;;;;;23.56;38.95;101823.06;16137823;19;128771;-55
2022/07/03 14:08:38;;;;;;;2.05;0.30;;;;;;;23.53;38.81;101819.94;16136804;19;130035;-56
2022/07/03 14:14:01;;;;;;;1.58;0.20;;;;;;;23.52;39.12;101821.88;16136132;19;129205;-55
2022/07/03 14:19:24;;;;;;;1.10;0.30;;;;;;;23.54;38.75;101828.06;16136601;19;129036;-57
2022/07/03 14:24:47;;;;;;;0.88;0.30;;;;;;;23.55;38.70;101835.34;16140636;19;129266;-56
2022/07/03 14:35:50;;;;;;;1.60;0.47;;;;;;;23.51;38.96;101829.44;16144129;19;129530;-56
2022/07/03 14:41:13;;;;;;;2.42;0.30;;;;;;;23.50;38.99;101838.91;16149384;19;130173;-56
2022/07/03 14:46:39;;;;;;;2.13;0.30;;;;;;;23.49;38.52;101836.38;16148594;19;129223;-54
2022/07/03 14:52:04;;;;;;;0.73;0.30;;;;;;;23.48;39.21;101834.69;16151451;19;128967;-57
2022/07/03 14:57:59;;;;;;;1.00;0.30;;;;;;;23.46;39.00;101837.72;16149062;19;130084;-54
2022/07/03 15:03:27;;;;;;;0.52;0.30;;;;;;;23.43;38.78;101846.63;16148552;19;130392;-57
2022/07/03 15:09:03;;;;;;;1.15;0.30;;;;;;;23.46;38.54;101836.88;16145826;19;128993;-53
2022/07/03 15:14:27;;;;;;;2.95;0.40;;;;;;;23.46;38.74;101842.47;16141235;19;129090;-57
2022/07/03 15:19:51;;;;;;;1.63;0.40;;;;;;;23.45;38.65;101840.78;16141962;19;129941;-58
2022/07/03 15:25:18;;;;;;;1.87;0.47;;;;;;;23.47;38.77;101844.16;16140621;19;130710;-55
2022/07/03 15:30:50;;;;;;;1.25;0.45;;;;;;;23.49;38.29;101850.34;16139144;19;129803;-57
2022/07/03 15:36:16;;;;;;;2.90;0.77;;;;;;;23.50;38.42;101854.84;16146016;19;129316;-57
2022/07/03 15:42:01;;;;;;;10.00;0.75;;;;;;;23.59;38.19;101844.94;16148150;19;129769;-56
2022/07/03 15:48:03;;;;;;;8.83;0.77;;;;;;;23.58;38.40;101857.19;16142164;19;129735;-54
2022/07/03 15:53:28;;;;;;;6.07;0.55;;;;;;;23.55;38.39;101854.88;16139076;19;129850;-56
2022/07/03 15:58:54;;;;;;;3.42;0.47;;;;;;;23.54;38.26;101855.97;16141099;19;130523;-55
2022/07/03 16:04:24;;;;;;;;;;;;;;;23.53;38.33;101853.47;16143689;19;130170;-56
2022/07/03 16:09:47;;;;;;;3.10;0.52;;;;;;;23.55;38.41;101854.88;16141063;19;129716;-57
2022/07/03 16:15:09;;;;;;;3.60;0.60;;;;;;;23.53;38.44;101848.72;16141619;19;130131;-55
2022/07/03 16:20:32;;;;;;;3.17;0.40;;;;;;;23.53;38.30;101856.25;16140161;19;131677;-55
2022/07/03 16:25:55;;;;;;;1.42;0.40;;;;;;;23.50;37.85;101852.88;16139448;19;129332;-56
2022/07/03 16:31:23;;;;;;;2.55;0.85;;;;;;;23.49;38.36;101842.78;16139771;19;131783;-56
2022/07/03 16:36:51;;;;;;;2.78;0.40;;;;;;;23.55;38.06;101840.91;16141233;19;130001;-54
2022/07/03 16:42:16;;;;;;;1.75;0.52;;;;;;;23.54;38.08;101841.19;16138988;19;129008;-55
2022/07/03 16:47:43;;;;;;;2.37;0.43;;;;;;;23.56;38.15;101845.41;16136001;19;130223;-53
2022/07/03 16:53:05;;;;;;;0.80;0.35;;;;;;;23.59;38.11;101833.75;16139983;19;129537;-55
2022/07/03 16:58:28;;;;;;;0.90;0.30;;;;;;;23.57;38.08;101841.50;16138156;19;129065;-56
2022/07/03 17:03:50;;;;;;;0.88;0.30;;;;;;;23.60;37.87;101837.38;16140951;19;130100;-53
2022/07/03 17:09:13;;;;;;;0.70;0.20;;;;;;;23.62;37.99;101841.63;16134596;19;129461;-55
2022/07/03 17:14:35;;;;;;;1.08;0.22;;;;;;;23.63;38.35;101839.66;16139567;19;129945;-55
2022/07/03 17:20:02;;;;;;;1.02;0.20;;;;;;;23.62;37.99;101841.63;16133785;19;129304;-53
2022/07/03 17:25:34;;;;;;;0.17;0.10;;;;;;;23.63;38.08;101854.47;16136396;19;128887;-56
2022/07/03 17:31:02;;;;;;;0.65;0.30;;;;;;;23.61;38.13;101859.50;16138323;19;129042;-54
2022/07/03 17:36:25;;;;;;;0.60;0.25;;;;;;;23.63;37.63;101859.22;16139089;19;128858;-55
2022/07/03 17:41:49;;;;;;;0.75;0.15;;;;;;;23.63;37.95;101860.03;16139311;19;130461;-56
2022/07/03 17:47:12;;;;;;;1.08;0.30;;;;;;;23.58;37.96;101851.63;16133974;19;128953;-53
2022/07/03 17:52:36;;;;;;;2.25;0.20;;;;;;;23.58;38.07;101864.69;16139532;19;130536;-58
2022/07/03 17:57:58;;;;;;;1.85;0.30;;;;;;;23.52;37.74;101863.78;16125329;19;131806;-56
2022/07/03 18:03:20;;;;;;;7.57;0.45;;;;;;;23.50;37.80;101869.63;16127719;19;130506;-56
2022/07/03 18:08:52;;;;;;;4.25;0.30;;;;;;;23.49;38.17;101864.31;16134193;19;131358;-57
2022/07/03 18:14:45;;;;;;;4.90;0.40;;;;;;;23.49;37.85;101858.72;16128245;19;130588;-57
2022/07/03 18:20:10;;;;;;;5.03;0.38;;;;;;;23.46;38.30;101870.41;16126109;19;130682;-55
2022/07/03 18:25:34;;;;;;;7.13;0.40;;;;;;;23.45;37.97;101871.50;16120111;19;129044;-56
2022/07/03 18:30:57;;;;;;;4.40;0.30;;;;;;;23.44;38.34;101872.59;16129643;19;129560;-55
2022/07/03 18:36:20;;;;;;;3.83;0.43;;;;;;;23.41;38.02;101873.97;16133425;19;129087;-54
2022/07/03 18:41:42;;;;;;;2.17;0.65;;;;;;;23.40;38.13;101882.56;16132370;19;129543;-56
2022/07/03 18:47:05;;;;;;;5.85;0.85;;;;;;;23.37;38.09;101885.91;16126528;19;129014;-54
2022/07/03 18:52:41;;;;;;;5.25;0.60;;;;;;;23.35;38.44;101875.84;16131403;19;129499;-55
2022/07/03 18:58:12;;;;;;;7.80;0.80;;;;;;;23.34;38.00;101879.72;16131781;19;129134;-55
2022/07/03 19:03:57;;;;;;;6.43;0.60;;;;;;;23.32;38.50;101881.91;16131995;19;129039;-55
2022/07/03 19:09:28;;;;;;;2.33;0.63;;;;;;;23.33;38.22;101883.63;16133170;19;130688;-52
2022/07/03 19:14:58;;;;;;;7.47;0.80;;;;;;;23.31;38.51;101884.97;16146791;19;130566;-55
2022/07/03 19:20:20;;;;;;;3.88;0.47;;;;;;;23.27;38.89;101879.03;16148915;19;128885;-56
2022/07/03 19:25:44;;;;;;;7.03;0.70;;;;;;;23.26;38.83;101880.16;16144406;19;129452;-54
2022/07/03 19:31:07;;;;;;;6.55;0.93;;;;;;;23.27;38.88;101879.03;16147622;19;130111;-56
2022/07/03 19:36:29;;;;;;;3.05;0.70;;;;;;;23.27;39.03;101887.41;16146037;19;129903;-56
2022/07/03 19:41:51;;;;;;;8.27;1.00;;;;;;;23.24;39.10;101893.53;16142111;19;130833;-54
2022/07/03 19:47:13;;;;;;;7.82;0.75;;;;;;;23.23;38.83;101900.22;16140578;19;131812;-54
2022/07/03 19:52:47;;;;;;;4.95;0.50;;;;;;;23.21;39.04;101905.19;16146744;19;129578;-56
2022/07/03 19:58:09;;;;;;;2.92;0.65;;;;;;;23.19;38.84;101907.41;16147008;19;129089;-56
2022/07/03 20:03:31;;;;;;;2.30;0.50;;;;;;;23.15;39.00;101921.00;16145732;19;129364;-56
2022/07/03 20:08:53;;;;;;;5.63;0.50;;;;;;;23.15;39.22;101932.19;16134848;19;129454;-57
2022/07/03 20:14:19;;;;;;;6.60;0.68;;;;;;;23.18;39.36;101944.78;16136721;19;129623;-53
2022/07/03 20:19:41;;;;;;;7.15;0.73;;;;;;;23.18;39.26;101931.69;16136686;19;129437;-59
2022/07/03 20:25:04;;;;;;;5.65;0.75;;;;;;;23.18;39.31;101947.56;16137103;19;129041;-56
2022/07/03 20:30:26;;;;;;;10.70;0.80;;;;;;;23.19;39.71;101957.63;16139363;19;130007;-56
2022/07/03 20:35:47;;;;;;;10.95;0.88;;;;;;;23.16;40.00;101958.13;16141902;19;130004;-57
2022/07/03 20:41:09;;;;;;;3.63;0.70;;;;;;;23.15;40.07;101964.81;16140071;19;129679;-56
2022/07/03 20:46:31;;;;;;;5.22;0.80;;;;;;;23.15;40.27;101964.81;16140014;19;130760;-56
2022/07/03 20:51:53;;;;;;;2.33;0.80;;;;;;;23.15;40.41;101962.03;16141073;19;129884;-55
2022/07/03 20:57:15;;;;;;;5.78;0.50;;;;;;;23.16;40.43;101960.94;16138649;19;130342;-58
2022/07/03 21:02:37;;;;;;;6.15;1.00;;;;;;;23.16;40.38;101972.09;16136341;19;129460;-55
2022/07/03 21:07:58;;;;;;;5.35;0.40;;;;;;;23.18;40.56;101972.69;16132935;19;129646;-53
2022/07/03 21:13:20;;;;;;;5.03;0.68;;;;;;;23.18;40.71;101975.47;16139064;19;129327;-56
2022/07/03 21:18:42;;;;;;;2.53;0.45;;;;;;;23.18;41.01;101981.06;16137436;19;130295;-55
2022/07/03 21:24:05;;;;;;;10.38;0.65;;;;;;;23.22;40.33;101995.34;16134998;19;129979;-56
2022/07/03 21:29:26;;;;;;;6.38;0.75;;;;;;;23.23;40.65;101997.06;16125919;19;130661;-56
2022/07/03 21:34:48;;;;;;;4.13;0.60;;;;;;;23.22;40.42;101982.25;16134592;19;129229;-55
2022/07/03 21:40:11;;;;;;;7.82;0.93;;;;;;;23.21;40.41;101986.16;16132786;19;130078;-56
2022/07/03 21:45:33;;;;;;;4.28;0.57;;;;;;;23.18;40.20;101992.22;16131909;19;130002;-56
2022/07/03 21:50:54;;;;;;;3.17;0.55;;;;;;;23.15;40.46;101985.22;16127496;19;129415;-57
2022/07/03 21:56:17;;;;;;;6.72;0.40;;;;;;;23.13;40.45;101993.00;16132699;19;130260;-57
2022/07/03 22:01:38;;;;;;;1.52;0.25;;;;;;;23.11;40.41;101988.78;16133717;19;129908;-54
2022/07/03 22:07:00;;;;;;;3.97;0.50;;;;;;;23.12;40.07;101990.47;16123278;19;129927;-57
2022/07/03 22:12:34;;;;;;;3.83;0.57;;;;;;;23.10;40.48;101996.28;16124727;19;129535;-57
2022/07/03 22:17:56;;;;;;;2.70;0.50;;;;;;;23.09;40.20;101999.34;16126962;19;129852;-57
2022/07/03 22:23:18;;;;;;;2.38;0.40;;;;;;;23.08;40.59;101997.63;16131880;19;131772;-54
2022/07/03 22:28:40;;;;;;;1.38;0.30;;;;;;;23.07;40.29;101996.81;16129023;19;129859;-54
2022/07/03 22:34:02;;;;;;;4.20;0.63;;;;;;;23.04;40.30;101992.53;16131069;19;130410;-55
2022/07/03 22:39:25;;;;;;;0.60;0.20;;;;;;;23.04;40.16;101986.97;16130271;19;130004;-57
2022/07/03 22:44:47;;;;;;;2.05;0.30;;;;;;;23.01;40.30;101984.69;16128710;19;129112;-58
2022/07/03 22:50:10;;;;;;;2.30;0.25;;;;;;;23.00;40.32;101985.78;16147213;19;130395;-57
2022/07/03 22:55:32;;;;;;;2.20;0.50;;;;;;;22.98;40.14;101990.78;16143976;19;130737;-54
2022/07/03 23:00:53;;;;;;;2.38;0.30;;;;;;;22.97;40.43;101989.06;16142036;19;129233;-57
2022/07/03 23:06:15;;;;;;;3.50;0.50;;;;;;;22.95;40.08;101994.06;16147206;19;129235;-56
2022/07/03 23:11:38;;;;;;;1.25;0.25;;;;;;;22.94;40.35;101994.31;16149917;19;129870;-55
2022/07/03 23:17:00;;;;;;;0.85;0.20;;;;;;;22.93;40.69;101990.66;16147854;19;129538;-54
2022/07/03 23:22:22;;;;;;;1.77;0.45;;;;;;;22.89;40.38;101986.66;16146452;19;130122;-54
2022/07/03 23:27:44;;;;;;;0.45;0.22;;;;;;;22.89;40.31;101995.03;16145985;19;129447;-55
2022/07/03 23:33:05;;;;;;;1.00;0.28;;;;;;;22.88;40.39;101987.75;16147729;19;130593;-57
2022/07/03 23:38:27;;;;;;;0.88;0.20;;;;;;;22.86;40.46;101985.22;16142035;19;132006;-56
2022/07/03 23:43:49;;;;;;;0.20;0.10;;;;;;;22.86;40.47;101989.94;16141532;19;130376;-57
2022/07/03 23:54:51;;;;;;;0.45;0.13;;;;;;;22.83;40.28;101984.88;16144557;19;130527;-56
